Time;durP1;ratioP1;P1;durP2;ratioP2;P2;SDS_P1;SDS_P2;PMS_P1;PMS_P2;Temp;Humidity;BMP_temperature;BMP_pressure;BME280_temperature;BME280_humidity;BME280_pressure;Samples;Min_cycle;Max_cycle;Signal;HPM_P1;HPM_P2
2021/08/30 00:01:25;;;;;;;13.43;9.17;;;17.50;99.90;;;;;;5066284;28;20443;-72
2021/08/30 00:03:54;;;;;;;17.50;9.83;;;17.40;99.90;;;;;;5062489;28;20482;-71
2021/08/30 00:06:21;;;;;;;16.07;9.93;;;17.40;99.90;;;;;;5056367;28;20522;-78
2021/08/30 00:08:48;;;;;;;14.30;7.20;;;17.40;99.90;;;;;;5063459;28;20504;-71
2021/08/30 00:11:17;;;;;;;12.23;8.43;;;17.50;99.90;;;;;;5065021;28;20470;-72
2021/08/30 00:13:44;;;;;;;18.40;10.70;;;17.60;99.90;;;;;;5063499;28;20462;-71
2021/08/30 00:16:11;;;;;;;23.70;9.27;;;17.60;99.90;;;;;;5068358;28;20475;-77
2021/08/30 00:18:38;;;;;;;14.37;9.73;;;17.50;99.90;;;;;;5070202;28;21138;-76
2021/08/30 00:21:08;;;;;;;15.27;9.00;;;17.50;99.90;;;;;;5065797;28;20469;-74
2021/08/30 00:23:34;;;;;;;15.83;10.00;;;17.50;99.90;;;;;;5069168;28;20577;-73
2021/08/30 00:26:04;;;;;;;15.37;8.40;;;17.40;99.90;;;;;;5067720;28;20610;-72
2021/08/30 00:28:32;;;;;;;15.90;9.17;;;17.40;99.90;;;;;;5063915;28;21695;-72
2021/08/30 00:30:59;;;;;;;13.87;8.50;;;17.30;99.90;;;;;;5062818;28;20461;-71
2021/08/30 00:33:26;;;;;;;15.70;9.27;;;17.30;99.90;;;;;;5065741;28;20505;-78
2021/08/30 00:35:53;;;;;;;17.80;8.93;;;17.30;99.90;;;;;;5064436;28;20562;-73
2021/08/30 00:38:22;;;;;;;19.10;10.33;;;17.30;99.90;;;;;;5062118;28;20471;-74
2021/08/30 00:40:48;;;;;;;13.23;8.67;;;17.30;99.90;;;;;;5063716;28;20580;-71
2021/08/30 00:43:15;;;;;;;13.97;8.50;;;17.40;99.90;;;;;;5061696;28;20935;-73
2021/08/30 00:45:42;;;;;;;13.73;8.60;;;17.30;99.90;;;;;;5065529;28;20551;-72
2021/08/30 00:48:09;;;;;;;17.50;9.63;;;17.40;99.90;;;;;;5071274;28;20476;-73
2021/08/30 00:50:37;;;;;;;13.80;9.23;;;17.30;99.90;;;;;;5061198;28;21628;-71
2021/08/30 00:53:04;;;;;;;14.93;9.00;;;17.20;99.90;;;;;;5059677;28;21159;-72
2021/08/30 00:55:33;;;;;;;16.23;10.20;;;17.30;99.90;;;;;;5064110;28;20510;-75
2021/08/30 00:58:01;;;;;;;21.03;9.50;;;17.30;99.90;;;;;;5062746;28;20595;-72
2021/08/30 01:00:28;;;;;;;15.93;9.63;;;17.30;99.90;;;;;;5063975;28;20455;-71
2021/08/30 01:02:55;;;;;;;14.97;8.60;;;17.20;99.90;;;;;;5061271;28;20500;-74
2021/08/30 01:05:22;;;;;;;14.43;9.47;;;17.40;99.90;;;;;;5064449;28;20567;-73
2021/08/30 01:08:00;;;;;;;10.93;8.37;;;17.50;99.90;;;;;;5064421;28;20502;-76
2021/08/30 01:10:37;;;;;;;14.17;9.23;;;17.50;99.90;;;;;;5064680;28;21838;-71
2021/08/30 01:13:10;;;;;;;11.23;7.57;;;17.50;99.90;;;;;;5057452;28;20614;-72
2021/08/30 01:15:40;;;;;;;11.83;8.30;;;17.30;99.90;;;;;;5056506;28;20847;-73
2021/08/30 01:18:10;;;;;;;14.37;7.60;;;17.10;99.90;;;;;;5062639;28;20439;-73
2021/08/30 01:20:50;;;;;;;14.13;8.60;;;17.20;99.90;;;;;;5064850;28;20439;-72
2021/08/30 01:23:17;;;;;;;11.37;7.60;;;17.20;99.90;;;;;;5063019;28;20469;-71
2021/08/30 01:25:46;;;;;;;15.10;9.53;;;17.10;99.90;;;;;;5065676;28;20494;-71
2021/08/30 01:28:15;;;;;;;13.97;8.10;;;17.20;99.90;;;;;;5068721;28;21411;-72
2021/08/30 01:30:45;;;;;;;15.67;8.87;;;17.20;99.90;;;;;;5061801;28;20446;-72
2021/08/30 01:33:14;;;;;;;12.07;6.87;;;17.10;99.90;;;;;;5070190;28;20485;-72
2021/08/30 01:35:41;;;;;;;13.70;7.50;;;17.10;99.90;;;;;;5060884;28;20540;-71
2021/08/30 01:38:09;;;;;;;15.17;9.07;;;17.20;99.90;;;;;;5059879;28;20532;-74
2021/08/30 01:40:38;;;;;;;15.53;9.10;;;17.30;99.90;;;;;;5059717;28;20958;-71
2021/08/30 01:43:06;;;;;;;14.47;9.60;;;17.10;99.90;;;;;;5064739;28;20462;-71
2021/08/30 01:45:36;;;;;;;13.67;8.87;;;17.10;99.90;;;;;;5063634;28;20498;-71
2021/08/30 01:48:05;;;;;;;11.27;7.80;;;17.00;99.90;;;;;;5066490;28;20506;-71
2021/08/30 01:50:37;;;;;;;10.90;7.50;;;17.10;99.90;;;;;;5069955;28;20462;-72
2021/08/30 01:53:07;;;;;;;16.60;8.33;;;17.00;99.90;;;;;;5067124;28;20450;-76
2021/08/30 01:55:40;;;;;;;15.77;9.20;;;17.10;99.90;;;;;;5063505;28;20506;-71
2021/08/30 02:00:55;;;;;;;14.33;8.60;;;16.90;99.90;;;;;;5063888;28;20981;-71
2021/08/30 02:03:24;;;;;;;18.43;9.73;;;17.10;99.90;;;;;;5056713;28;26328;-73
2021/08/30 02:05:54;;;;;;;11.00;8.10;;;17.00;99.90;;;;;;5063111;28;20485;-72
2021/08/30 02:08:23;;;;;;;14.83;8.30;;;17.00;99.90;;;;;;5065075;28;20882;-70
2021/08/30 02:10:51;;;;;;;11.97;8.53;;;17.00;99.90;;;;;;5064325;28;20483;-71
2021/08/30 02:13:20;;;;;;;17.33;8.10;;;16.90;99.90;;;;;;5063007;28;20491;-71
2021/08/30 02:15:48;;;;;;;10.80;6.67;;;16.90;99.90;;;;;;5059187;28;20502;-70
2021/08/30 02:18:20;;;;;;;13.13;7.73;;;16.90;99.90;;;;;;5056659;28;20533;-72
2021/08/30 02:20:57;;;;;;;13.40;7.80;;;16.80;99.90;;;;;;5060732;28;20911;-71
2021/08/30 02:23:30;;;;;;;14.80;7.53;;;16.70;99.90;;;;;;5066206;28;20524;-71
2021/08/30 02:26:02;;;;;;;13.47;9.17;;;16.80;99.90;;;;;;5063581;28;20478;-71
2021/08/30 02:28:30;;;;;;;15.03;8.93;;;16.80;99.90;;;;;;5061952;28;20629;-71
2021/08/30 02:30:59;;;;;;;11.13;7.60;;;16.80;99.90;;;;;;5062951;28;20816;-70
2021/08/30 02:33:26;;;;;;;16.10;10.63;;;16.80;99.90;;;;;;5064662;28;20450;-72
2021/08/30 02:36:02;;;;;;;11.93;9.13;;;16.90;99.90;;;;;;5068732;28;20553;-72
2021/08/30 02:38:30;;;;;;;13.27;8.30;;;16.80;99.90;;;;;;5079988;28;20453;-72
2021/08/30 02:40:58;;;;;;;14.57;8.90;;;16.90;99.90;;;;;;5081666;28;20431;-71
2021/08/30 02:43:26;;;;;;;15.23;8.77;;;16.90;99.90;;;;;;5058099;28;20545;-71
2021/08/30 02:45:54;;;;;;;13.73;7.43;;;16.80;99.90;;;;;;5060370;28;20554;-70
2021/08/30 02:48:23;;;;;;;14.80;10.90;;;16.70;99.90;;;;;;5056765;28;20478;-71
2021/08/30 02:50:52;;;;;;;22.37;9.83;;;16.80;99.90;;;;;;5066599;28;20470;-71
2021/08/30 02:53:22;;;;;;;13.00;8.00;;;16.80;99.90;;;;;;5061598;28;20545;-72
2021/08/30 02:55:49;;;;;;;10.50;7.87;;;16.90;99.90;;;;;;5063388;28;20673;-72
2021/08/30 02:58:17;;;;;;;12.23;7.40;;;16.90;99.90;;;;;;5067152;28;20532;-70
2021/08/30 03:00:44;;;;;;;16.23;8.47;;;17.00;99.90;;;;;;5062793;28;20532;-72
2021/08/30 03:03:11;;;;;;;12.30;8.50;;;17.00;99.90;;;;;;5060916;28;22169;-71
2021/08/30 03:05:39;;;;;;;16.57;8.23;;;17.00;99.90;;;;;;5062838;28;20536;-71
2021/08/30 03:08:07;;;;;;;22.93;10.97;;;16.90;99.90;;;;;;5061666;28;20992;-71
2021/08/30 03:10:37;;;;;;;13.93;7.20;;;16.80;99.90;;;;;;5068039;28;20481;-71
2021/08/30 03:13:06;;;;;;;14.97;8.40;;;16.80;99.90;;;;;;5054937;28;20482;-73
2021/08/30 03:15:35;;;;;;;13.60;8.50;;;16.80;99.90;;;;;;5068913;28;21061;-72
2021/08/30 03:18:06;;;;;;;11.50;8.57;;;16.80;99.90;;;;;;5066699;28;20486;-75
2021/08/30 03:20:34;;;;;;;17.37;10.60;;;16.80;99.90;;;;;;5064464;28;21091;-70
2021/08/30 03:23:02;;;;;;;19.33;10.70;;;16.80;99.90;;;;;;5063557;28;20510;-72
2021/08/30 03:25:35;;;;;;;11.50;8.50;;;16.70;99.90;;;;;;5066402;28;21101;-71
2021/08/30 03:28:04;;;;;;;17.53;10.40;;;16.70;99.90;;;;;;5059727;28;20495;-71
2021/08/30 03:30:32;;;;;;;17.53;9.73;;;16.70;99.90;;;;;;5059332;28;20478;-71
2021/08/30 03:33:00;;;;;;;22.00;11.20;;;16.70;99.90;;;;;;5062079;28;20465;-76
2021/08/30 03:35:29;;;;;;;13.10;7.50;;;16.70;99.90;;;;;;5067338;28;20915;-75
2021/08/30 03:37:57;;;;;;;19.33;8.43;;;16.70;99.90;;;;;;5062269;28;20451;-71
2021/08/30 03:40:25;;;;;;;16.07;9.10;;;16.70;99.90;;;;;;5068582;28;20478;-72
2021/08/30 03:42:55;;;;;;;17.90;9.60;;;16.90;99.90;;;;;;5066840;28;20508;-76
2021/08/30 03:45:22;;;;;;;17.70;10.00;;;16.70;99.90;;;;;;5060722;28;20505;-71
2021/08/30 03:47:49;;;;;;;14.70;9.30;;;16.80;99.90;;;;;;5071611;28;20772;-73
2021/08/30 03:50:16;;;;;;;13.60;8.57;;;16.70;99.90;;;;;;5072619;28;20501;-72
2021/08/30 03:52:43;;;;;;;15.63;9.80;;;16.70;99.90;;;;;;5069673;28;20486;-73
2021/08/30 03:55:11;;;;;;;12.80;8.70;;;16.70;99.90;;;;;;5060700;28;20514;-72
2021/08/30 03:57:39;;;;;;;23.77;9.30;;;16.70;99.90;;;;;;5071203;28;20976;-71
2021/08/30 04:00:09;;;;;;;19.07;8.97;;;16.70;99.90;;;;;;5071641;28;20447;-75
2021/08/30 04:02:38;;;;;;;16.13;8.70;;;16.70;99.90;;;;;;5061018;28;20481;-72
2021/08/30 04:05:06;;;;;;;14.10;9.03;;;16.70;99.90;;;;;;5063619;28;20475;-71
2021/08/30 04:07:35;;;;;;;14.40;10.07;;;16.80;99.90;;;;;;5064809;28;20506;-71
2021/08/30 04:10:02;;;;;;;18.13;11.67;;;16.80;99.90;;;;;;5057999;28;20486;-73
2021/08/30 04:12:29;;;;;;;14.87;10.00;;;16.80;99.90;;;;;;5061195;28;20516;-71
2021/08/30 04:14:57;;;;;;;14.87;8.50;;;16.70;99.90;;;;;;5066475;28;20943;-74
2021/08/30 04:17:25;;;;;;;22.20;12.60;;;16.70;99.90;;;;;;5073091;28;21120;-71
2021/08/30 04:19:52;;;;;;;16.90;9.83;;;16.70;99.90;;;;;;5062947;28;20464;-72
2021/08/30 04:22:19;;;;;;;18.37;11.00;;;16.70;99.90;;;;;;5061785;28;20494;-71
2021/08/30 04:24:46;;;;;;;17.93;9.40;;;16.70;99.90;;;;;;5055203;28;20615;-77
2021/08/30 04:27:13;;;;;;;15.67;11.27;;;16.80;99.90;;;;;;5065204;28;20462;-72
2021/08/30 04:29:40;;;;;;;16.83;11.70;;;16.80;99.90;;;;;;5057697;28;20560;-71
2021/08/30 04:32:09;;;;;;;18.37;8.70;;;16.70;99.90;;;;;;5061634;28;20546;-72
2021/08/30 04:34:38;;;;;;;13.70;9.13;;;16.70;99.90;;;;;;5064355;28;20986;-71
2021/08/30 04:37:05;;;;;;;16.57;8.53;;;16.60;99.90;;;;;;5059248;28;20451;-73
2021/08/30 04:39:32;;;;;;;14.93;10.13;;;16.60;99.90;;;;;;5063728;28;20435;-71
2021/08/30 04:42:01;;;;;;;17.33;9.87;;;16.50;99.90;;;;;;5064556;28;20474;-71
2021/08/30 04:44:29;;;;;;;15.40;7.90;;;16.50;99.90;;;;;;5061915;28;20493;-70
2021/08/30 04:46:56;;;;;;;18.30;10.63;;;16.50;99.90;;;;;;5057476;28;20538;-73
2021/08/30 04:49:23;;;;;;;23.37;11.57;;;16.50;99.90;;;;;;5048371;28;20608;-71
2021/08/30 04:51:51;;;;;;;17.53;11.63;;;16.40;99.90;;;;;;5060085;28;20479;-70
2021/08/30 04:54:20;;;;;;;15.90;10.60;;;16.40;99.90;;;;;;5063486;28;20874;-71
2021/08/30 04:56:47;;;;;;;14.07;10.07;;;16.50;99.90;;;;;;5069894;28;20869;-74
2021/08/30 04:59:14;;;;;;;18.50;11.60;;;16.50;99.90;;;;;;5091664;28;20454;-70
2021/08/30 05:01:41;;;;;;;17.10;9.67;;;16.60;99.90;;;;;;5066434;28;20486;-71
2021/08/30 05:04:08;;;;;;;18.23;10.20;;;16.60;99.90;;;;;;5064946;28;20490;-70
2021/08/30 05:06:35;;;;;;;20.93;11.03;;;16.60;99.90;;;;;;5066905;28;20541;-71
2021/08/30 05:09:03;;;;;;;18.93;10.37;;;16.60;99.90;;;;;;5059365;28;20518;-70
2021/08/30 05:11:30;;;;;;;14.60;11.00;;;16.70;99.90;;;;;;5067814;28;21005;-72
2021/08/30 05:13:59;;;;;;;15.80;9.57;;;16.50;99.90;;;;;;5064896;28;20557;-73
2021/08/30 05:16:25;;;;;;;20.30;11.63;;;16.50;99.90;;;;;;5072460;28;20442;-71
2021/08/30 05:18:52;;;;;;;21.87;11.97;;;16.40;99.90;;;;;;5067653;28;20553;-71
2021/08/30 05:21:19;;;;;;;23.30;10.60;;;16.40;99.90;;;;;;5064931;28;20463;-73
2021/08/30 05:23:46;;;;;;;19.53;10.70;;;16.40;99.90;;;;;;5071915;28;20503;-72
2021/08/30 05:26:15;;;;;;;19.00;10.53;;;16.50;99.90;;;;;;5068273;28;20537;-73
2021/08/30 05:28:41;;;;;;;19.10;10.40;;;16.40;99.90;;;;;;5070699;28;20510;-73
2021/08/30 05:31:08;;;;;;;18.33;10.20;;;16.50;99.90;;;;;;5068062;28;20877;-72
2021/08/30 05:33:37;;;;;;;18.27;10.13;;;16.50;99.90;;;;;;5067470;28;20494;-72
2021/08/30 05:36:04;;;;;;;18.47;11.40;;;16.60;99.90;;;;;;5066485;28;20471;-73
2021/08/30 05:38:31;;;;;;;21.03;11.20;;;16.60;99.90;;;;;;5071660;28;20525;-72
2021/08/30 05:40:58;;;;;;;18.90;11.00;;;16.70;99.90;;;;;;5061621;28;20479;-72
2021/08/30 05:43:27;;;;;;;23.50;14.10;;;16.90;99.90;;;;;;5066991;28;20498;-72
2021/08/30 05:45:54;;;;;;;17.43;9.47;;;16.90;99.90;;;;;;5068675;28;20477;-70
2021/08/30 05:48:21;;;;;;;16.40;11.37;;;16.90;99.90;;;;;;5066706;28;20584;-72
2021/08/30 05:50:48;;;;;;;12.00;7.30;;;16.90;99.90;;;;;;5067269;28;20451;-72
2021/08/30 05:53:15;;;;;;;17.83;9.70;;;16.80;99.90;;;;;;5068777;28;20562;-72
2021/08/30 05:55:42;;;;;;;14.93;10.10;;;16.80;99.90;;;;;;5069387;28;20557;-72
2021/08/30 05:58:09;;;;;;;21.77;11.67;;;16.90;99.90;;;;;;5073341;28;20455;-72
2021/08/30 06:00:37;;;;;;;15.23;10.53;;;16.90;99.90;;;;;;5066338;28;20966;-72
2021/08/30 06:03:04;;;;;;;18.10;10.23;;;16.80;99.90;;;;;;5065308;28;20473;-72
2021/08/30 06:05:31;;;;;;;19.70;11.17;;;16.90;99.90;;;;;;5064261;28;20561;-73
2021/08/30 06:07:58;;;;;;;16.90;10.37;;;17.00;99.90;;;;;;5067587;28;20450;-72
2021/08/30 06:10:25;;;;;;;18.70;11.70;;;17.00;99.90;;;;;;5070985;28;20446;-72
2021/08/30 06:12:52;;;;;;;24.03;11.97;;;17.00;99.90;;;;;;5068134;28;20529;-77
2021/08/30 06:15:19;;;;;;;22.83;10.60;;;17.00;99.90;;;;;;5069972;28;20563;-71
2021/08/30 06:17:47;;;;;;;16.30;10.27;;;17.00;99.90;;;;;;5069925;28;20946;-73
2021/08/30 06:20:14;;;;;;;25.90;11.33;;;17.30;99.90;;;;;;5071259;28;20485;-72
2021/08/30 06:22:41;;;;;;;17.33;10.67;;;17.50;99.90;;;;;;5069942;28;20493;-75
2021/08/30 06:25:09;;;;;;;21.10;11.50;;;17.60;99.90;;;;;;5066142;28;20490;-72
2021/08/30 06:27:36;;;;;;;20.40;14.93;;;17.80;99.90;;;;;;5070821;28;20451;-72
2021/08/30 06:30:04;;;;;;;19.97;12.20;;;17.60;99.90;;;;;;5067485;28;20481;-71
2021/08/30 06:32:31;;;;;;;20.00;12.57;;;17.60;99.90;;;;;;5070686;28;20454;-72
2021/08/30 06:34:59;;;;;;;19.47;10.87;;;17.80;99.90;;;;;;5069883;28;20527;-72
2021/08/30 06:37:26;;;;;;;17.50;12.53;;;17.90;99.90;;;;;;5072471;28;20512;-73
2021/08/30 06:39:53;;;;;;;15.40;10.93;;;17.80;99.90;;;;;;5066843;28;20497;-71
2021/08/30 06:42:20;;;;;;;17.30;9.17;;;17.80;99.90;;;;;;5072874;28;20759;-70
2021/08/30 06:44:47;;;;;;;23.03;12.40;;;17.70;99.90;;;;;;5073655;28;20521;-71
2021/08/30 06:47:14;;;;;;;24.10;12.30;;;17.60;99.90;;;;;;5075122;28;20546;-71
2021/08/30 06:49:41;;;;;;;22.13;12.10;;;17.70;99.90;;;;;;5068408;28;20514;-71
2021/08/30 06:52:09;;;;;;;19.60;11.37;;;17.80;99.90;;;;;;5074286;28;20513;-71
2021/08/30 06:54:36;;;;;;;20.40;12.90;;;18.00;99.90;;;;;;5072112;28;20565;-71
2021/08/30 06:57:04;;;;;;;23.23;12.27;;;18.10;99.90;;;;;;5069377;28;20495;-72
2021/08/30 06:59:31;;;;;;;18.30;12.60;;;18.10;99.90;;;;;;5070638;28;20872;-72
2021/08/30 07:01:58;;;;;;;26.07;11.80;;;18.10;99.90;;;;;;5072345;28;20462;-71
2021/08/30 07:04:25;;;;;;;22.90;13.30;;;18.20;99.90;;;;;;5067319;28;20535;-72
2021/08/30 07:06:52;;;;;;;19.30;11.47;;;18.10;99.90;;;;;;5071100;28;20470;-71
2021/08/30 07:09:20;;;;;;;19.30;11.77;;;18.30;99.90;;;;;;5073742;28;20478;-71
2021/08/30 07:11:49;;;;;;;22.57;11.37;;;18.40;99.90;;;;;;5072860;28;20793;-70
2021/08/30 07:14:16;;;;;;;15.40;10.00;;;18.60;99.90;;;;;;5063534;28;20573;-71
2021/08/30 07:16:43;;;;;;;19.77;12.70;;;18.60;99.90;;;;;;5067762;28;20547;-71
2021/08/30 07:19:10;;;;;;;17.80;10.33;;;18.50;99.90;;;;;;5057605;28;20482;-72
2021/08/30 07:21:37;;;;;;;22.47;12.00;;;18.40;99.90;;;;;;5062417;28;20458;-71
2021/08/30 07:24:05;;;;;;;17.27;10.17;;;18.60;99.90;;;;;;5066306;28;20539;-72
2021/08/30 07:26:33;;;;;;;15.67;11.10;;;18.50;99.90;;;;;;5066312;28;20520;-71
2021/08/30 07:29:00;;;;;;;20.00;12.20;;;18.60;99.90;;;;;;5060605;28;20561;-73
2021/08/30 07:31:27;;;;;;;22.60;12.40;;;18.80;99.90;;;;;;5067813;28;20586;-72
2021/08/30 07:33:55;;;;;;;16.40;11.47;;;18.90;99.90;;;;;;5071483;28;20458;-72
2021/08/30 07:36:22;;;;;;;15.43;11.50;;;18.90;99.90;;;;;;5070858;28;20878;-71
2021/08/30 07:38:49;;;;;;;18.90;13.27;;;19.00;99.90;;;;;;5067273;28;20858;-74
2021/08/30 07:41:16;;;;;;;17.43;11.07;;;19.30;99.90;;;;;;5067028;28;20486;-71
2021/08/30 07:43:44;;;;;;;14.30;9.97;;;19.20;99.90;;;;;;5068057;28;20459;-72
2021/08/30 07:46:11;;;;;;;16.27;10.50;;;19.00;99.90;;;;;;5067816;28;20498;-72
2021/08/30 07:48:38;;;;;;;17.47;11.13;;;19.10;99.90;;;;;;5073267;28;20539;-71
2021/08/30 07:51:05;;;;;;;15.60;10.47;;;19.30;99.90;;;;;;5068186;28;21754;-73
2021/08/30 07:53:32;;;;;;;16.07;11.70;;;19.50;99.90;;;;;;5071876;28;20849;-71
2021/08/30 07:55:59;;;;;;;15.20;11.00;;;19.80;99.90;;;;;;5077825;28;20492;-73
2021/08/30 07:58:26;;;;;;;19.80;9.83;;;19.50;99.90;;;;;;5073360;28;20939;-72
2021/08/30 08:00:55;;;;;;;18.50;13.57;;;19.40;99.90;;;;;;5063510;28;20508;-72
2021/08/30 08:03:21;;;;;;;12.53;8.90;;;19.30;99.90;;;;;;5062102;28;20459;-78
2021/08/30 08:05:48;;;;;;;14.40;9.53;;;19.40;99.90;;;;;;5067977;28;20541;-71
2021/08/30 08:08:15;;;;;;;15.73;9.40;;;19.70;99.90;;;;;;5071023;28;20489;-72
2021/08/30 08:10:43;;;;;;;14.33;9.00;;;19.80;99.90;;;;;;5060148;28;20487;-71
2021/08/30 08:13:11;;;;;;;13.60;9.03;;;20.00;99.90;;;;;;5072404;28;20473;-71
2021/08/30 08:15:38;;;;;;;12.50;7.93;;;20.10;99.90;;;;;;5074475;28;20646;-71
2021/08/30 08:18:07;;;;;;;13.80;8.30;;;19.70;99.90;;;;;;5075138;28;20458;-72
2021/08/30 08:20:34;;;;;;;11.63;8.00;;;19.40;99.90;;;;;;5077000;28;20431;-72
2021/08/30 08:23:02;;;;;;;13.80;8.63;;;19.70;99.90;;;;;;5081227;28;20454;-73
2021/08/30 08:25:30;;;;;;;7.60;5.50;;;19.90;99.90;;;;;;5074780;28;20823;-71
2021/08/30 08:28:00;;;;;;;12.27;9.37;;;19.90;99.90;;;;;;5066711;28;20526;-73
2021/08/30 08:30:28;;;;;;;13.50;8.90;;;19.60;99.90;;;;;;5063513;28;20475;-74
2021/08/30 08:32:55;;;;;;;15.60;9.60;;;19.30;99.90;;;;;;5062413;28;20442;-72
2021/08/30 08:35:23;;;;;;;11.80;8.57;;;19.10;99.90;;;;;;5064248;28;20576;-73
2021/08/30 08:37:51;;;;;;;12.30;8.63;;;19.40;99.90;;;;;;5064875;28;20451;-72
2021/08/30 08:40:18;;;;;;;12.47;6.53;;;20.00;99.90;;;;;;5063386;28;20493;-72
2021/08/30 08:42:45;;;;;;;15.37;8.37;;;20.40;99.90;;;;;;5071562;28;20447;-72
2021/08/30 08:45:15;;;;;;;10.30;9.13;;;20.50;99.90;;;;;;5070110;28;21122;-77
2021/08/30 08:47:43;;;;;;;15.47;8.93;;;20.20;99.90;;;;;;5072646;28;20478;-72
2021/08/30 08:50:12;;;;;;;14.37;8.77;;;20.20;99.90;;;;;;5067390;28;20510;-74
2021/08/30 08:52:43;;;;;;;11.03;7.57;;;20.20;99.90;;;;;;5070760;28;20531;-71
2021/08/30 08:55:10;;;;;;;11.70;8.50;;;20.20;99.90;;;;;;5062650;28;20545;-71
2021/08/30 08:57:38;;;;;;;11.27;7.63;;;20.10;99.90;;;;;;5059836;28;20451;-71
2021/08/30 09:00:09;;;;;;;12.20;8.67;;;20.00;99.90;;;;;;5062167;28;20519;-71
2021/08/30 09:02:37;;;;;;;11.33;6.67;;;19.90;99.90;;;;;;5068205;28;20494;-73
2021/08/30 09:05:06;;;;;;;13.27;7.70;;;19.90;99.90;;;;;;5067274;28;20508;-71
2021/08/30 09:07:34;;;;;;;11.83;8.20;;;19.70;99.90;;;;;;5068878;28;20811;-71
2021/08/30 09:10:05;;;;;;;11.47;8.50;;;19.80;99.90;;;;;;5072104;28;20536;-71
2021/08/30 09:12:32;;;;;;;9.70;7.10;;;19.80;99.90;;;;;;5065589;28;20754;-71
2021/08/30 09:14:59;;;;;;;10.77;6.83;;;19.90;99.90;;;;;;5065597;28;21001;-72
2021/08/30 09:17:33;;;;;;;14.77;9.50;;;20.00;99.90;;;;;;5070109;28;20966;-71
2021/08/30 09:20:03;;;;;;;11.17;6.10;;;20.00;99.90;;;;;;5066941;28;20887;-71
2021/08/30 09:22:31;;;;;;;13.03;8.50;;;20.40;99.90;;;;;;5062759;28;20482;-73
2021/08/30 09:25:09;;;;;;;13.57;9.57;;;20.80;99.90;;;;;;5068855;28;20494;-71
2021/08/30 09:27:37;;;;;;;12.10;7.83;;;20.60;99.90;;;;;;5064978;28;20502;-73
2021/08/30 09:30:06;;;;;;;11.63;7.30;;;20.70;99.90;;;;;;5070725;28;20490;-71
2021/08/30 09:32:34;;;;;;;10.70;7.30;;;20.70;99.90;;;;;;5071548;28;20490;-71
2021/08/30 09:35:04;;;;;;;12.80;8.67;;;20.80;99.90;;;;;;5068691;28;20504;-71
2021/08/30 09:37:35;;;;;;;10.80;8.17;;;21.10;99.90;;;;;;5071061;28;20589;-71
2021/08/30 09:40:04;;;;;;;10.00;7.57;;;21.40;99.90;;;;;;5067049;28;20899;-71
2021/08/30 09:42:33;;;;;;;11.23;7.87;;;21.60;99.90;;;;;;5059555;28;20485;-72
2021/08/30 09:45:09;;;;;;;12.20;8.10;;;21.80;99.90;;;;;;5068735;28;20561;-73
2021/08/30 09:47:36;;;;;;;10.70;6.80;;;21.50;99.90;;;;;;5066919;28;20462;-72
2021/08/30 09:50:09;;;;;;;11.37;8.17;;;21.70;99.90;;;;;;5069164;28;20478;-72
2021/08/30 09:52:36;;;;;;;12.00;8.03;;;21.90;99.90;;;;;;5059998;28;20444;-74
2021/08/30 09:55:03;;;;;;;11.73;7.80;;;22.00;99.90;;;;;;5062918;28;20509;-72
2021/08/30 09:57:32;;;;;;;14.53;8.67;;;22.50;99.90;;;;;;5058552;28;20554;-76
2021/08/30 10:00:02;;;;;;;12.30;7.10;;;23.30;99.90;;;;;;5059409;28;20507;-71
2021/08/30 10:02:30;;;;;;;14.93;9.63;;;24.10;99.90;;;;;;5062636;28;20487;-71
2021/08/30 10:05:00;;;;;;;13.13;8.63;;;24.10;99.90;;;;;;5061573;28;20479;-71
2021/08/30 10:07:29;;;;;;;12.80;8.60;;;24.00;99.90;;;;;;5066133;28;20597;-71
2021/08/30 10:09:56;;;;;;;11.93;8.83;;;23.60;99.90;;;;;;5064810;28;20960;-71
2021/08/30 10:12:23;;;;;;;9.80;7.27;;;23.00;99.90;;;;;;5062583;28;20461;-72
2021/08/30 10:14:52;;;;;;;10.23;8.33;;;22.50;99.90;;;;;;5065127;28;20504;-71
2021/08/30 10:17:19;;;;;;;13.27;8.20;;;22.50;99.90;;;;;;5057761;28;20550;-73
2021/08/30 10:19:56;;;;;;;11.60;7.70;;;23.00;99.90;;;;;;5064817;28;20451;-71
2021/08/30 10:22:23;;;;;;;12.23;8.07;;;23.20;99.90;;;;;;5068179;28;20442;-71
2021/08/30 10:24:51;;;;;;;11.97;7.90;;;23.00;99.90;;;;;;5067750;28;20525;-72
2021/08/30 10:27:33;;;;;;;9.03;7.20;;;23.00;99.90;;;;;;5070621;28;20962;-71
2021/08/30 10:30:09;;;;;;;18.73;7.57;;;23.20;99.90;;;;;;5071603;28;20482;-71
2021/08/30 10:32:44;;;;;;;10.90;7.83;;;23.30;99.90;;;;;;5066546;28;20531;-70
2021/08/30 10:35:17;;;;;;;10.97;6.80;;;23.00;99.90;;;;;;5060260;28;20899;-71
2021/08/30 10:37:52;;;;;;;12.43;8.57;;;23.00;99.90;;;;;;5062410;28;20553;-71
2021/08/30 10:40:21;;;;;;;11.37;8.60;;;23.80;99.90;;;;;;5067555;28;20493;-71
2021/08/30 10:43:03;;;;;;;8.87;6.37;;;24.80;99.90;;;;;;5070370;28;20523;-72
2021/08/30 10:45:34;;;;;;;9.13;7.10;;;26.40;99.90;;;;;;5084184;28;20490;-73
2021/08/30 10:48:04;;;;;;;8.73;6.43;;;26.30;99.90;;;;;;5080455;28;20506;-72
2021/08/30 10:50:32;;;;;;;9.17;7.20;;;25.30;99.90;;;;;;5071089;28;20482;-72
2021/08/30 10:53:05;;;;;;;14.33;6.77;;;24.40;99.90;;;;;;5065947;28;20467;-73
2021/08/30 10:55:38;;;;;;;9.83;7.33;;;23.90;99.90;;;;;;5063783;28;20533;-72
2021/08/30 10:58:14;;;;;;;9.67;5.97;;;24.30;99.90;;;;;;5071677;28;20496;-72
2021/08/30 11:00:42;;;;;;;10.13;6.83;;;25.60;99.90;;;;;;5067416;28;20474;-77
2021/08/30 11:03:10;;;;;;;10.10;6.93;;;26.60;99.90;;;;;;5066296;28;20471;-76
2021/08/30 11:05:39;;;;;;;14.50;7.87;;;27.90;99.90;;;;;;5061642;28;20517;-71
2021/08/30 11:08:06;;;;;;;8.67;6.97;;;27.80;99.90;;;;;;5067049;28;20490;-72
2021/08/30 11:10:33;;;;;;;12.50;6.83;;;26.80;99.90;;;;;;5067812;28;20514;-72
2021/08/30 11:13:01;;;;;;;9.47;7.30;;;26.20;99.90;;;;;;5066197;28;20451;-72
2021/08/30 11:15:32;;;;;;;11.67;6.93;;;26.80;99.90;;;;;;5064825;28;20984;-74
2021/08/30 11:18:03;;;;;;;11.10;7.40;;;27.30;99.90;;;;;;5066133;28;20444;-72
2021/08/30 11:20:30;;;;;;;8.13;5.60;;;26.80;99.90;;;;;;5068626;28;20458;-72
2021/08/30 11:22:57;;;;;;;8.30;6.47;;;26.50;99.90;;;;;;5072864;28;20963;-71
2021/08/30 11:25:34;;;;;;;7.63;6.93;;;25.90;99.90;;;;;;5070377;28;20542;-72
2021/08/30 11:28:12;;;;;;;10.03;6.23;;;25.50;99.90;;;;;;5063779;28;20458;-74
2021/08/30 11:30:39;;;;;;;8.80;6.90;;;24.90;99.90;;;;;;5070228;28;20470;-72
2021/08/30 11:33:07;;;;;;;8.80;6.27;;;24.80;99.90;;;;;;5073120;28;20888;-72
2021/08/30 11:35:34;;;;;;;7.23;5.63;;;24.90;99.90;;;;;;5071582;28;20943;-74
2021/08/30 11:38:11;;;;;;;5.60;5.00;;;25.40;99.90;;;;;;5072606;28;20450;-71
2021/08/30 11:40:39;;;;;;;8.87;6.33;;;26.70;99.90;;;;;;5072457;28;20442;-75
2021/08/30 11:43:13;;;;;;;8.50;5.70;;;28.00;99.90;;;;;;5071447;28;20476;-73
2021/08/30 11:45:40;;;;;;;6.53;5.93;;;29.00;99.90;;;;;;5072316;28;20475;-72
2021/08/30 11:48:14;;;;;;;7.80;6.00;;;29.40;99.90;;;;;;5073638;28;20443;-75
2021/08/30 11:50:42;;;;;;;6.83;4.77;;;30.40;99.90;;;;;;5066653;28;20470;-74
2021/08/30 11:53:14;;;;;;;9.40;5.60;;;30.80;99.90;;;;;;5071167;28;20538;-73
2021/08/30 11:55:41;;;;;;;9.10;7.13;;;30.30;99.90;;;;;;5075035;28;20523;-73
2021/08/30 11:58:09;;;;;;;11.73;5.80;;;29.10;99.90;;;;;;5074061;28;20516;-71
2021/08/30 12:00:36;;;;;;;9.53;6.13;;;27.90;99.90;;;;;;5068528;28;20814;-76
2021/08/30 12:03:16;;;;;;;6.20;5.60;;;26.40;99.90;;;;;;5071064;28;20545;-71
2021/08/30 12:05:44;;;;;;;7.80;5.43;;;25.40;99.90;;;;;;5070407;28;20466;-71
2021/08/30 12:08:12;;;;;;;7.37;5.13;;;24.70;99.90;;;;;;5063403;28;20831;-71
2021/08/30 12:10:39;;;;;;;9.63;5.90;;;24.40;99.90;;;;;;5070653;28;20563;-72
2021/08/30 12:15:51;;;;;;;5.93;4.50;;;23.50;99.90;;;;;;5071765;28;20445;-72
2021/08/30 12:18:19;;;;;;;6.77;4.83;;;23.20;99.90;;;;;;5073580;28;20596;-71
2021/08/30 12:20:47;;;;;;;7.00;6.20;;;22.90;99.90;;;;;;5067606;28;20526;-74
2021/08/30 12:23:18;;;;;;;6.43;5.00;;;22.60;99.90;;;;;;5070283;28;20526;-72
2021/08/30 12:25:48;;;;;;;6.13;4.90;;;22.70;99.90;;;;;;5067750;28;20481;-72
2021/08/30 12:28:17;;;;;;;5.70;4.90;;;22.80;99.90;;;;;;5063540;28;20466;-73
2021/08/30 12:30:46;;;;;;;6.77;4.37;;;23.00;99.90;;;;;;5055328;28;20486;-72
2021/08/30 12:33:16;;;;;;;7.90;5.40;;;23.50;99.90;;;;;;5064222;28;21320;-73
2021/08/30 12:35:46;;;;;;;7.73;5.60;;;23.70;99.90;;;;;;5070774;28;20473;-72
2021/08/30 12:38:16;;;;;;;6.43;4.90;;;23.70;99.90;;;;;;5072954;28;20442;-72
2021/08/30 12:40:48;;;;;;;7.17;5.73;;;23.70;99.90;;;;;;5069811;28;20462;-72
2021/08/30 12:43:16;;;;;;;7.67;5.13;;;23.80;99.90;;;;;;5071351;28;20588;-73
2021/08/30 12:45:44;;;;;;;5.83;5.30;;;23.60;99.90;;;;;;5070999;28;20487;-74
2021/08/30 12:48:11;;;;;;;7.10;5.47;;;23.50;99.90;;;;;;5071200;28;20512;-70